sensor_id;sensor_type;location;lat;lon;timestamp;P1;durP1;ratioP1;P2;durP2;ratioP2
44784;SDS011;30507;53.160;8.210;2023-09-18T00:01:16;1.48;;;1.38;;
44784;SDS011;30507;53.160;8.210;2023-09-18T00:03:44;0.85;;;0.85;;
44784;SDS011;30507;53.160;8.210;2023-09-18T00:06:10;1.67;;;1.58;;
44784;SDS011;30507;53.160;8.210;2023-09-18T00:08:36;1.30;;;1.20;;
44784;SDS011;30507;53.160;8.210;2023-09-18T00:11:01;1.40;;;1.30;;
44784;SDS011;30507;53.160;8.210;2023-09-18T00:13:26;1.40;;;1.30;;
44784;SDS011;30507;53.160;8.210;2023-09-18T00:15:54;1.50;;;1.40;;
44784;SDS011;30507;53.160;8.210;2023-09-18T00:18:19;1.30;;;1.20;;
44784;SDS011;30507;53.160;8.210;2023-09-18T00:20:44;1.27;;;1.17;;
44784;SDS011;30507;53.160;8.210;2023-09-18T00:23:11;1.58;;;1.35;;
44784;SDS011;30507;53.160;8.210;2023-09-18T00:25:36;1.67;;;1.58;;
44784;SDS011;30507;53.160;8.210;2023-09-18T00:28:02;1.17;;;1.17;;
44784;SDS011;30507;53.160;8.210;2023-09-18T00:30:27;1.50;;;1.40;;
44784;SDS011;30507;53.160;8.210;2023-09-18T00:32:52;1.00;;;1.00;;
44784;SDS011;30507;53.160;8.210;2023-09-18T00:35:17;1.27;;;1.17;;
44784;SDS011;30507;53.160;8.210;2023-09-18T00:37:42;1.20;;;1.10;;
44784;SDS011;30507;53.160;8.210;2023-09-18T00:40:08;1.40;;;1.30;;
44784;SDS011;30507;53.160;8.210;2023-09-18T00:42:33;1.08;;;1.00;;
44784;SDS011;30507;53.160;8.210;2023-09-18T00:44:58;1.17;;;1.10;;
44784;SDS011;30507;53.160;8.210;2023-09-18T00:47:23;1.53;;;1.40;;
44784;SDS011;30507;53.160;8.210;2023-09-18T00:49:49;1.60;;;1.50;;
44784;SDS011;30507;53.160;8.210;2023-09-18T00:52:15;1.17;;;1.15;;
44784;SDS011;30507;53.160;8.210;2023-09-18T00:54:40;1.58;;;1.48;;
44784;SDS011;30507;53.160;8.210;2023-09-18T00:57:06;1.40;;;1.30;;
44784;SDS011;30507;53.160;8.210;2023-09-18T00:59:33;1.40;;;1.30;;
44784;SDS011;30507;53.160;8.210;2023-09-18T01:01:58;1.50;;;1.40;;
44784;SDS011;30507;53.160;8.210;2023-09-18T01:04:24;1.30;;;1.10;;
44784;SDS011;30507;53.160;8.210;2023-09-18T01:06:50;1.30;;;1.20;;
44784;SDS011;30507;53.160;8.210;2023-09-18T01:09:18;0.90;;;0.90;;
44784;SDS011;30507;53.160;8.210;2023-09-18T01:11:48;1.73;;;1.63;;
44784;SDS011;30507;53.160;8.210;2023-09-18T01:16:43;1.38;;;1.30;;
44784;SDS011;30507;53.160;8.210;2023-09-18T01:19:10;1.75;;;1.65;;
44784;SDS011;30507;53.160;8.210;2023-09-18T01:21:35;1.10;;;1.10;;
44784;SDS011;30507;53.160;8.210;2023-09-18T01:24:00;2.00;;;1.90;;
44784;SDS011;30507;53.160;8.210;2023-09-18T01:26:25;1.48;;;1.38;;
44784;SDS011;30507;53.160;8.210;2023-09-18T01:28:51;1.35;;;1.35;;
44784;SDS011;30507;53.160;8.210;2023-09-18T01:31:16;1.50;;;1.40;;
44784;SDS011;30507;53.160;8.210;2023-09-18T01:33:42;1.50;;;1.40;;
44784;SDS011;30507;53.160;8.210;2023-09-18T01:36:09;1.63;;;1.52;;
44784;SDS011;30507;53.160;8.210;2023-09-18T01:38:35;1.40;;;1.30;;
44784;SDS011;30507;53.160;8.210;2023-09-18T01:41:01;1.60;;;1.50;;
44784;SDS011;30507;53.160;8.210;2023-09-18T01:43:26;1.67;;;1.57;;
44784;SDS011;30507;53.160;8.210;2023-09-18T01:45:52;1.40;;;1.30;;
44784;SDS011;30507;53.160;8.210;2023-09-18T01:48:18;1.77;;;1.67;;
44784;SDS011;30507;53.160;8.210;2023-09-18T01:50:43;1.23;;;1.20;;
44784;SDS011;30507;53.160;8.210;2023-09-18T01:53:08;1.50;;;1.40;;
44784;SDS011;30507;53.160;8.210;2023-09-18T01:55:33;1.65;;;1.55;;
44784;SDS011;30507;53.160;8.210;2023-09-18T01:57:59;1.70;;;1.60;;
44784;SDS011;30507;53.160;8.210;2023-09-18T02:00:24;1.60;;;1.50;;
44784;SDS011;30507;53.160;8.210;2023-09-18T02:02:49;1.37;;;1.27;;
44784;SDS011;30507;53.160;8.210;2023-09-18T02:05:14;1.50;;;1.40;;
44784;SDS011;30507;53.160;8.210;2023-09-18T02:07:39;1.60;;;1.50;;
44784;SDS011;30507;53.160;8.210;2023-09-18T02:10:05;1.30;;;1.20;;
44784;SDS011;30507;53.160;8.210;2023-09-18T02:12:30;1.35;;;1.25;;
44784;SDS011;30507;53.160;8.210;2023-09-18T02:14:55;1.53;;;1.43;;
44784;SDS011;30507;53.160;8.210;2023-09-18T02:17:23;1.45;;;1.35;;
44784;SDS011;30507;53.160;8.210;2023-09-18T02:19:48;1.80;;;1.70;;
44784;SDS011;30507;53.160;8.210;2023-09-18T02:22:13;1.33;;;1.23;;
44784;SDS011;30507;53.160;8.210;2023-09-18T02:24:38;1.30;;;1.20;;
44784;SDS011;30507;53.160;8.210;2023-09-18T02:27:04;1.37;;;1.27;;
44784;SDS011;30507;53.160;8.210;2023-09-18T02:29:30;1.30;;;1.20;;
44784;SDS011;30507;53.160;8.210;2023-09-18T02:31:55;1.65;;;1.55;;
44784;SDS011;30507;53.160;8.210;2023-09-18T02:34:20;1.67;;;1.57;;
44784;SDS011;30507;53.160;8.210;2023-09-18T02:36:45;1.50;;;1.40;;
44784;SDS011;30507;53.160;8.210;2023-09-18T02:39:10;1.67;;;1.57;;
44784;SDS011;30507;53.160;8.210;2023-09-18T02:41:36;1.42;;;1.33;;
44784;SDS011;30507;53.160;8.210;2023-09-18T02:44:01;1.42;;;1.33;;
44784;SDS011;30507;53.160;8.210;2023-09-18T02:46:26;1.92;;;1.58;;
44784;SDS011;30507;53.160;8.210;2023-09-18T02:48:51;1.43;;;1.33;;
44784;SDS011;30507;53.160;8.210;2023-09-18T02:51:16;1.57;;;1.47;;
44784;SDS011;30507;53.160;8.210;2023-09-18T02:53:41;1.30;;;1.20;;
44784;SDS011;30507;53.160;8.210;2023-09-18T02:56:06;2.35;;;1.92;;
44784;SDS011;30507;53.160;8.210;2023-09-18T02:58:32;1.67;;;1.58;;
44784;SDS011;30507;53.160;8.210;2023-09-18T03:00:57;1.60;;;1.48;;
44784;SDS011;30507;53.160;8.210;2023-09-18T03:03:27;1.58;;;1.48;;
44784;SDS011;30507;53.160;8.210;2023-09-18T03:05:52;1.20;;;1.05;;
44784;SDS011;30507;53.160;8.210;2023-09-18T03:08:18;1.00;;;1.00;;
44784;SDS011;30507;53.160;8.210;2023-09-18T03:10:43;1.73;;;1.63;;
44784;SDS011;30507;53.160;8.210;2023-09-18T03:13:09;2.20;;;1.33;;
44784;SDS011;30507;53.160;8.210;2023-09-18T03:15:34;1.35;;;1.25;;
44784;SDS011;30507;53.160;8.210;2023-09-18T03:18:00;1.40;;;1.30;;
44784;SDS011;30507;53.160;8.210;2023-09-18T03:20:26;1.58;;;1.48;;
44784;SDS011;30507;53.160;8.210;2023-09-18T03:22:52;1.48;;;1.38;;
44784;SDS011;30507;53.160;8.210;2023-09-18T03:25:17;1.48;;;1.38;;
44784;SDS011;30507;53.160;8.210;2023-09-18T03:27:42;1.47;;;1.37;;
44784;SDS011;30507;53.160;8.210;2023-09-18T03:30:07;1.40;;;1.30;;
44784;SDS011;30507;53.160;8.210;2023-09-18T03:32:33;1.75;;;1.65;;
44784;SDS011;30507;53.160;8.210;2023-09-18T03:34:58;1.47;;;1.40;;
44784;SDS011;30507;53.160;8.210;2023-09-18T03:37:23;1.52;;;1.42;;
44784;SDS011;30507;53.160;8.210;2023-09-18T03:39:48;1.67;;;1.58;;
44784;SDS011;30507;53.160;8.210;2023-09-18T03:42:13;1.30;;;1.20;;
44784;SDS011;30507;53.160;8.210;2023-09-18T03:44:39;1.30;;;1.20;;
44784;SDS011;30507;53.160;8.210;2023-09-18T03:47:04;1.17;;;1.13;;
44784;SDS011;30507;53.160;8.210;2023-09-18T03:49:29;1.67;;;1.58;;
44784;SDS011;30507;53.160;8.210;2023-09-18T03:51:55;1.85;;;1.75;;
44784;SDS011;30507;53.160;8.210;2023-09-18T03:54:20;1.33;;;1.27;;
44784;SDS011;30507;53.160;8.210;2023-09-18T03:56:45;1.87;;;1.63;;
44784;SDS011;30507;53.160;8.210;2023-09-18T03:59:11;1.35;;;1.25;;
44784;SDS011;30507;53.160;8.210;2023-09-18T04:01:36;1.70;;;1.60;;
44784;SDS011;30507;53.160;8.210;2023-09-18T04:04:01;1.83;;;1.08;;
44784;SDS011;30507;53.160;8.210;2023-09-18T04:06:35;1.60;;;1.50;;
44784;SDS011;30507;53.160;8.210;2023-09-18T04:09:00;1.33;;;1.23;;
44784;SDS011;30507;53.160;8.210;2023-09-18T04:11:25;1.77;;;1.30;;
44784;SDS011;30507;53.160;8.210;2023-09-18T04:13:51;1.40;;;1.30;;
44784;SDS011;30507;53.160;8.210;2023-09-18T04:16:16;1.75;;;1.40;;
44784;SDS011;30507;53.160;8.210;2023-09-18T04:18:42;1.50;;;1.40;;
44784;SDS011;30507;53.160;8.210;2023-09-18T04:21:08;1.30;;;1.20;;
44784;SDS011;30507;53.160;8.210;2023-09-18T04:23:33;1.55;;;1.45;;
44784;SDS011;30507;53.160;8.210;2023-09-18T04:25:58;1.35;;;1.25;;
44784;SDS011;30507;53.160;8.210;2023-09-18T04:28:24;1.30;;;1.30;;
44784;SDS011;30507;53.160;8.210;2023-09-18T04:30:49;1.33;;;1.23;;
44784;SDS011;30507;53.160;8.210;2023-09-18T04:33:14;1.80;;;1.70;;
44784;SDS011;30507;53.160;8.210;2023-09-18T04:35:39;1.47;;;1.37;;
44784;SDS011;30507;53.160;8.210;2023-09-18T04:38:08;1.33;;;1.23;;
44784;SDS011;30507;53.160;8.210;2023-09-18T04:40:36;1.10;;;1.10;;
44784;SDS011;30507;53.160;8.210;2023-09-18T04:43:01;1.38;;;1.27;;
44784;SDS011;30507;53.160;8.210;2023-09-18T04:45:29;1.70;;;1.60;;
44784;SDS011;30507;53.160;8.210;2023-09-18T04:47:54;1.10;;;1.10;;
44784;SDS011;30507;53.160;8.210;2023-09-18T04:50:20;1.60;;;1.50;;
44784;SDS011;30507;53.160;8.210;2023-09-18T04:52:45;1.40;;;1.30;;
44784;SDS011;30507;53.160;8.210;2023-09-18T04:55:10;1.70;;;1.60;;
44784;SDS011;30507;53.160;8.210;2023-09-18T04:57:36;1.08;;;1.05;;
44784;SDS011;30507;53.160;8.210;2023-09-18T05:00:01;1.25;;;1.20;;
44784;SDS011;30507;53.160;8.210;2023-09-18T05:02:27;1.30;;;1.20;;
44784;SDS011;30507;53.160;8.210;2023-09-18T05:04:52;1.83;;;0.90;;
44784;SDS011;30507;53.160;8.210;2023-09-18T05:07:18;1.60;;;1.50;;
44784;SDS011;30507;53.160;8.210;2023-09-18T05:09:43;2.50;;;2.30;;
44784;SDS011;30507;53.160;8.210;2023-09-18T05:12:08;1.70;;;1.60;;
44784;SDS011;30507;53.160;8.210;2023-09-18T05:14:38;1.77;;;1.67;;
44784;SDS011;30507;53.160;8.210;2023-09-18T05:17:03;1.60;;;1.50;;
44784;SDS011;30507;53.160;8.210;2023-09-18T05:19:28;1.43;;;1.37;;
44784;SDS011;30507;53.160;8.210;2023-09-18T05:21:54;1.55;;;1.45;;
44784;SDS011;30507;53.160;8.210;2023-09-18T05:24:19;1.53;;;1.43;;
44784;SDS011;30507;53.160;8.210;2023-09-18T05:26:51;1.58;;;1.48;;
44784;SDS011;30507;53.160;8.210;2023-09-18T05:29:18;1.92;;;1.80;;
44784;SDS011;30507;53.160;8.210;2023-09-18T05:31:43;1.50;;;1.40;;
44784;SDS011;30507;53.160;8.210;2023-09-18T05:34:08;1.63;;;1.53;;
44784;SDS011;30507;53.160;8.210;2023-09-18T05:36:34;1.75;;;1.65;;
44784;SDS011;30507;53.160;8.210;2023-09-18T05:38:59;1.40;;;1.30;;
44784;SDS011;30507;53.160;8.210;2023-09-18T05:41:24;1.70;;;1.60;;
44784;SDS011;30507;53.160;8.210;2023-09-18T05:43:51;1.95;;;1.65;;
44784;SDS011;30507;53.160;8.210;2023-09-18T05:46:17;2.10;;;1.90;;
44784;SDS011;30507;53.160;8.210;2023-09-18T05:48:42;1.67;;;1.58;;
44784;SDS011;30507;53.160;8.210;2023-09-18T05:51:07;1.80;;;1.70;;
44784;SDS011;30507;53.160;8.210;2023-09-18T05:53:32;1.63;;;1.52;;
44784;SDS011;30507;53.160;8.210;2023-09-18T05:55:59;2.28;;;1.40;;
44784;SDS011;30507;53.160;8.210;2023-09-18T05:58:28;1.67;;;1.58;;
44784;SDS011;30507;53.160;8.210;2023-09-18T06:03:21;1.60;;;1.50;;
44784;SDS011;30507;53.160;8.210;2023-09-18T06:05:47;2.37;;;1.57;;
44784;SDS011;30507;53.160;8.210;2023-09-18T06:08:12;1.00;;;1.00;;
44784;SDS011;30507;53.160;8.210;2023-09-18T06:10:37;1.50;;;1.40;;
44784;SDS011;30507;53.160;8.210;2023-09-18T06:13:02;1.52;;;1.42;;
44784;SDS011;30507;53.160;8.210;2023-09-18T06:15:29;2.90;;;1.60;;
44784;SDS011;30507;53.160;8.210;2023-09-18T06:17:54;1.67;;;1.57;;
44784;SDS011;30507;53.160;8.210;2023-09-18T06:20:19;2.72;;;1.75;;
44784;SDS011;30507;53.160;8.210;2023-09-18T06:22:44;2.13;;;1.67;;
44784;SDS011;30507;53.160;8.210;2023-09-18T06:25:09;1.80;;;1.70;;
44784;SDS011;30507;53.160;8.210;2023-09-18T06:27:35;1.93;;;1.77;;
44784;SDS011;30507;53.160;8.210;2023-09-18T06:30:01;1.42;;;1.15;;
44784;SDS011;30507;53.160;8.210;2023-09-18T06:32:27;1.52;;;1.42;;
44784;SDS011;30507;53.160;8.210;2023-09-18T06:34:52;1.67;;;1.50;;
44784;SDS011;30507;53.160;8.210;2023-09-18T06:37:17;1.77;;;1.67;;
44784;SDS011;30507;53.160;8.210;2023-09-18T06:39:43;3.80;;;2.25;;
44784;SDS011;30507;53.160;8.210;2023-09-18T06:42:08;1.53;;;1.40;;
44784;SDS011;30507;53.160;8.210;2023-09-18T06:44:34;1.70;;;1.35;;
44784;SDS011;30507;53.160;8.210;2023-09-18T06:46:59;1.40;;;1.30;;
44784;SDS011;30507;53.160;8.210;2023-09-18T06:49:24;2.50;;;2.13;;
44784;SDS011;30507;53.160;8.210;2023-09-18T06:51:50;2.17;;;1.90;;
44784;SDS011;30507;53.160;8.210;2023-09-18T06:54:15;3.40;;;1.52;;
44784;SDS011;30507;53.160;8.210;2023-09-18T06:56:40;2.47;;;1.80;;
44784;SDS011;30507;53.160;8.210;2023-09-18T06:59:06;2.38;;;1.50;;
44784;SDS011;30507;53.160;8.210;2023-09-18T07:01:31;1.70;;;1.60;;
44784;SDS011;30507;53.160;8.210;2023-09-18T07:03:57;1.88;;;1.63;;
44784;SDS011;30507;53.160;8.210;2023-09-18T07:06:24;1.75;;;1.65;;
44784;SDS011;30507;53.160;8.210;2023-09-18T07:08:49;2.00;;;1.90;;
44784;SDS011;30507;53.160;8.210;2023-09-18T07:11:15;1.70;;;1.60;;
44784;SDS011;30507;53.160;8.210;2023-09-18T07:13:40;1.92;;;1.83;;
44784;SDS011;30507;53.160;8.210;2023-09-18T07:16:05;2.23;;;1.47;;
44784;SDS011;30507;53.160;8.210;2023-09-18T07:18:31;2.13;;;1.90;;
44784;SDS011;30507;53.160;8.210;2023-09-18T07:20:56;2.00;;;1.60;;
44784;SDS011;30507;53.160;8.210;2023-09-18T07:23:21;1.97;;;1.87;;
44784;SDS011;30507;53.160;8.210;2023-09-18T07:25:49;1.50;;;1.40;;
44784;SDS011;30507;53.160;8.210;2023-09-18T07:30:42;1.48;;;1.38;;
44784;SDS011;30507;53.160;8.210;2023-09-18T07:33:08;2.53;;;1.38;;
44784;SDS011;30507;53.160;8.210;2023-09-18T07:35:33;1.43;;;1.33;;
44784;SDS011;30507;53.160;8.210;2023-09-18T07:37:59;1.60;;;1.50;;
44784;SDS011;30507;53.160;8.210;2023-09-18T07:40:24;1.80;;;1.67;;
44784;SDS011;30507;53.160;8.210;2023-09-18T07:42:49;1.23;;;1.13;;
44784;SDS011;30507;53.160;8.210;2023-09-18T07:45:14;1.40;;;1.30;;
44784;SDS011;30507;53.160;8.210;2023-09-18T07:47:39;1.97;;;1.30;;
44784;SDS011;30507;53.160;8.210;2023-09-18T07:50:05;1.70;;;1.60;;
44784;SDS011;30507;53.160;8.210;2023-09-18T07:52:31;1.73;;;1.58;;
44784;SDS011;30507;53.160;8.210;2023-09-18T07:54:56;1.17;;;1.10;;
44784;SDS011;30507;53.160;8.210;2023-09-18T07:57:23;1.58;;;1.48;;
44784;SDS011;30507;53.160;8.210;2023-09-18T07:59:48;3.90;;;1.57;;
44784;SDS011;30507;53.160;8.210;2023-09-18T08:02:13;1.43;;;1.33;;
44784;SDS011;30507;53.160;8.210;2023-09-18T08:04:38;1.70;;;1.60;;
44784;SDS011;30507;53.160;8.210;2023-09-18T08:07:04;1.33;;;1.05;;
44784;SDS011;30507;53.160;8.210;2023-09-18T08:09:32;1.52;;;1.42;;
44784;SDS011;30507;53.160;8.210;2023-09-18T08:12:01;2.38;;;1.75;;
44784;SDS011;30507;53.160;8.210;2023-09-18T08:14:26;1.37;;;1.27;;
44784;SDS011;30507;53.160;8.210;2023-09-18T08:16:55;1.15;;;1.10;;
44784;SDS011;30507;53.160;8.210;2023-09-18T08:19:22;1.55;;;1.45;;
44784;SDS011;30507;53.160;8.210;2023-09-18T08:21:48;1.30;;;1.30;;
44784;SDS011;30507;53.160;8.210;2023-09-18T08:24:13;1.30;;;1.20;;
44784;SDS011;30507;53.160;8.210;2023-09-18T08:26:38;1.57;;;1.40;;
44784;SDS011;30507;53.160;8.210;2023-09-18T08:29:04;2.17;;;1.98;;
44784;SDS011;30507;53.160;8.210;2023-09-18T08:31:29;3.97;;;1.53;;
44784;SDS011;30507;53.160;8.210;2023-09-18T08:33:56;1.77;;;1.40;;
44784;SDS011;30507;53.160;8.210;2023-09-18T08:36:21;1.63;;;1.20;;
44784;SDS011;30507;53.160;8.210;2023-09-18T08:38:47;1.30;;;1.20;;
44784;SDS011;30507;53.160;8.210;2023-09-18T08:41:12;3.47;;;1.55;;
44784;SDS011;30507;53.160;8.210;2023-09-18T08:43:39;2.65;;;2.40;;
44784;SDS011;30507;53.160;8.210;2023-09-18T08:46:07;1.80;;;1.50;;
44784;SDS011;30507;53.160;8.210;2023-09-18T08:48:33;1.97;;;1.77;;
44784;SDS011;30507;53.160;8.210;2023-09-18T08:51:03;1.70;;;1.60;;
44784;SDS011;30507;53.160;8.210;2023-09-18T08:53:30;2.28;;;1.77;;
44784;SDS011;30507;53.160;8.210;2023-09-18T08:55:55;2.45;;;1.92;;
44784;SDS011;30507;53.160;8.210;2023-09-18T08:58:23;2.80;;;1.75;;
44784;SDS011;30507;53.160;8.210;2023-09-18T09:00:49;2.65;;;2.10;;
44784;SDS011;30507;53.160;8.210;2023-09-18T09:03:15;2.42;;;2.10;;
44784;SDS011;30507;53.160;8.210;2023-09-18T09:05:40;1.03;;;1.03;;
44784;SDS011;30507;53.160;8.210;2023-09-18T09:08:05;1.53;;;1.40;;
44784;SDS011;30507;53.160;8.210;2023-09-18T09:10:30;1.60;;;1.50;;
44784;SDS011;30507;53.160;8.210;2023-09-18T09:12:58;3.13;;;1.90;;
44784;SDS011;30507;53.160;8.210;2023-09-18T09:15:28;1.80;;;1.70;;
44784;SDS011;30507;53.160;8.210;2023-09-18T09:18:06;1.40;;;1.30;;
44784;SDS011;30507;53.160;8.210;2023-09-18T09:20:32;2.95;;;2.05;;
44784;SDS011;30507;53.160;8.210;2023-09-18T09:23:01;1.88;;;1.77;;
44784;SDS011;30507;53.160;8.210;2023-09-18T09:25:27;2.55;;;1.05;;
44784;SDS011;30507;53.160;8.210;2023-09-18T09:27:56;1.42;;;1.33;;
44784;SDS011;30507;53.160;8.210;2023-09-18T09:30:22;1.45;;;1.33;;
44784;SDS011;30507;53.160;8.210;2023-09-18T09:32:52;1.48;;;1.38;;
44784;SDS011;30507;53.160;8.210;2023-09-18T09:35:27;3.30;;;1.73;;
44784;SDS011;30507;53.160;8.210;2023-09-18T09:37:56;1.33;;;1.23;;
44784;SDS011;30507;53.160;8.210;2023-09-18T09:40:21;1.65;;;1.55;;
44784;SDS011;30507;53.160;8.210;2023-09-18T09:42:47;2.20;;;1.55;;
44784;SDS011;30507;53.160;8.210;2023-09-18T09:45:14;4.53;;;1.58;;
44784;SDS011;30507;53.160;8.210;2023-09-18T09:47:43;2.10;;;1.90;;
44784;SDS011;30507;53.160;8.210;2023-09-18T09:50:12;6.30;;;2.00;;
44784;SDS011;30507;53.160;8.210;2023-09-18T09:52:42;1.98;;;1.83;;
44784;SDS011;30507;53.160;8.210;2023-09-18T09:55:25;2.97;;;2.30;;
44784;SDS011;30507;53.160;8.210;2023-09-18T09:57:51;3.47;;;1.63;;
44784;SDS011;30507;53.160;8.210;2023-09-18T10:00:17;2.58;;;1.80;;
44784;SDS011;30507;53.160;8.210;2023-09-18T10:02:59;3.35;;;1.73;;
44784;SDS011;30507;53.160;8.210;2023-09-18T10:05:26;3.38;;;1.88;;
44784;SDS011;30507;53.160;8.210;2023-09-18T10:07:52;9.07;;;2.28;;
44784;SDS011;30507;53.160;8.210;2023-09-18T10:10:17;4.35;;;1.92;;
44784;SDS011;30507;53.160;8.210;2023-09-18T10:12:43;4.93;;;3.03;;
44784;SDS011;30507;53.160;8.210;2023-09-18T10:15:08;4.20;;;2.55;;
44784;SDS011;30507;53.160;8.210;2023-09-18T10:17:36;2.33;;;1.88;;
44784;SDS011;30507;53.160;8.210;2023-09-18T10:20:05;4.22;;;2.45;;
44784;SDS011;30507;53.160;8.210;2023-09-18T10:22:39;4.35;;;2.72;;
44784;SDS011;30507;53.160;8.210;2023-09-18T10:25:10;4.30;;;1.95;;
44784;SDS011;30507;53.160;8.210;2023-09-18T10:27:37;3.17;;;2.65;;
44784;SDS011;30507;53.160;8.210;2023-09-18T10:30:03;2.55;;;2.33;;
44784;SDS011;30507;53.160;8.210;2023-09-18T10:32:30;5.32;;;2.35;;
44784;SDS011;30507;53.160;8.210;2023-09-18T10:34:55;3.90;;;2.45;;
44784;SDS011;30507;53.160;8.210;2023-09-18T10:37:20;2.28;;;1.80;;
44784;SDS011;30507;53.160;8.210;2023-09-18T10:39:47;4.78;;;2.30;;
44784;SDS011;30507;53.160;8.210;2023-09-18T10:42:14;2.58;;;1.90;;
44784;SDS011;30507;53.160;8.210;2023-09-18T10:44:41;4.13;;;1.40;;
44784;SDS011;30507;53.160;8.210;2023-09-18T10:47:08;2.13;;;1.75;;
44784;SDS011;30507;53.160;8.210;2023-09-18T10:49:34;4.60;;;2.33;;
44784;SDS011;30507;53.160;8.210;2023-09-18T10:52:00;1.88;;;1.30;;
44784;SDS011;30507;53.160;8.210;2023-09-18T10:54:26;1.80;;;1.70;;
44784;SDS011;30507;53.160;8.210;2023-09-18T10:56:52;2.88;;;1.65;;
44784;SDS011;30507;53.160;8.210;2023-09-18T10:59:17;7.15;;;1.98;;
44784;SDS011;30507;53.160;8.210;2023-09-18T11:01:43;2.50;;;1.60;;
44784;SDS011;30507;53.160;8.210;2023-09-18T11:04:09;1.40;;;1.30;;
44784;SDS011;30507;53.160;8.210;2023-09-18T11:11:51;1.27;;;1.17;;
44784;SDS011;30507;53.160;8.210;2023-09-18T11:14:17;2.05;;;1.95;;
44784;SDS011;30507;53.160;8.210;2023-09-18T11:16:42;4.13;;;1.80;;
44784;SDS011;30507;53.160;8.210;2023-09-18T11:19:09;1.40;;;1.30;;
44784;SDS011;30507;53.160;8.210;2023-09-18T11:21:35;2.53;;;1.63;;
44784;SDS011;30507;53.160;8.210;2023-09-18T11:24:01;1.73;;;1.30;;
44784;SDS011;30507;53.160;8.210;2023-09-18T11:26:36;4.32;;;2.08;;
44784;SDS011;30507;53.160;8.210;2023-09-18T11:29:03;1.63;;;1.25;;
44784;SDS011;30507;53.160;8.210;2023-09-18T11:31:43;1.50;;;1.10;;
44784;SDS011;30507;53.160;8.210;2023-09-18T11:36:39;1.45;;;1.17;;
44784;SDS011;30507;53.160;8.210;2023-09-18T11:39:05;1.33;;;1.23;;
44784;SDS011;30507;53.160;8.210;2023-09-18T11:41:31;2.50;;;1.60;;
44784;SDS011;30507;53.160;8.210;2023-09-18T11:44:42;3.58;;;2.05;;
44784;SDS011;30507;53.160;8.210;2023-09-18T11:46:46;1.35;;;1.05;;
44784;SDS011;30507;53.160;8.210;2023-09-18T11:49:12;0.98;;;0.98;;
44784;SDS011;30507;53.160;8.210;2023-09-18T11:51:38;1.33;;;0.95;;
44784;SDS011;30507;53.160;8.210;2023-09-18T11:54:04;0.95;;;0.85;;
44784;SDS011;30507;53.160;8.210;2023-09-18T11:56:30;2.00;;;1.20;;
44784;SDS011;30507;53.160;8.210;2023-09-18T11:58:55;3.38;;;1.83;;
44784;SDS011;30507;53.160;8.210;2023-09-18T12:01:21;1.83;;;1.23;;
44784;SDS011;30507;53.160;8.210;2023-09-18T12:04:21;1.77;;;1.67;;
44784;SDS011;30507;53.160;8.210;2023-09-18T12:06:39;3.83;;;1.40;;
44784;SDS011;30507;53.160;8.210;2023-09-18T12:09:05;4.13;;;1.95;;
44784;SDS011;30507;53.160;8.210;2023-09-18T12:11:30;3.35;;;1.60;;
44784;SDS011;30507;53.160;8.210;2023-09-18T12:13:55;1.70;;;1.60;;
44784;SDS011;30507;53.160;8.210;2023-09-18T12:16:20;2.93;;;1.47;;
44784;SDS011;30507;53.160;8.210;2023-09-18T12:18:46;2.65;;;1.67;;
44784;SDS011;30507;53.160;8.210;2023-09-18T12:21:13;1.30;;;1.08;;
44784;SDS011;30507;53.160;8.210;2023-09-18T12:23:39;1.05;;;1.05;;
44784;SDS011;30507;53.160;8.210;2023-09-18T12:26:05;1.83;;;1.17;;
44784;SDS011;30507;53.160;8.210;2023-09-18T12:28:32;1.58;;;1.48;;
44784;SDS011;30507;53.160;8.210;2023-09-18T12:30:57;2.58;;;1.50;;
44784;SDS011;30507;53.160;8.210;2023-09-18T12:33:23;1.17;;;1.08;;
44784;SDS011;30507;53.160;8.210;2023-09-18T12:35:49;1.37;;;1.23;;
44784;SDS011;30507;53.160;8.210;2023-09-18T12:38:15;1.58;;;1.17;;
44784;SDS011;30507;53.160;8.210;2023-09-18T12:40:40;4.18;;;1.38;;
44784;SDS011;30507;53.160;8.210;2023-09-18T12:43:06;5.32;;;1.77;;
44784;SDS011;30507;53.160;8.210;2023-09-18T12:45:32;2.08;;;1.30;;
44784;SDS011;30507;53.160;8.210;2023-09-18T12:47:58;6.82;;;1.80;;
44784;SDS011;30507;53.160;8.210;2023-09-18T12:50:24;2.05;;;1.38;;
44784;SDS011;30507;53.160;8.210;2023-09-18T12:52:50;2.95;;;1.00;;
44784;SDS011;30507;53.160;8.210;2023-09-18T12:55:24;2.10;;;1.10;;
44784;SDS011;30507;53.160;8.210;2023-09-18T12:57:51;1.60;;;1.02;;
44784;SDS011;30507;53.160;8.210;2023-09-18T13:00:17;2.35;;;1.20;;
44784;SDS011;30507;53.160;8.210;2023-09-18T13:02:45;3.08;;;0.80;;
44784;SDS011;30507;53.160;8.210;2023-09-18T13:05:10;1.47;;;0.90;;
44784;SDS011;30507;53.160;8.210;2023-09-18T13:07:43;3.50;;;1.50;;
44784;SDS011;30507;53.160;8.210;2023-09-18T13:10:08;1.85;;;0.77;;
44784;SDS011;30507;53.160;8.210;2023-09-18T13:15:04;0.90;;;0.85;;
44784;SDS011;30507;53.160;8.210;2023-09-18T13:17:37;1.42;;;0.90;;
44784;SDS011;30507;53.160;8.210;2023-09-18T13:20:06;1.25;;;0.98;;
44784;SDS011;30507;53.160;8.210;2023-09-18T13:22:32;2.92;;;0.85;;
44784;SDS011;30507;53.160;8.210;2023-09-18T13:24:58;1.50;;;1.10;;
44784;SDS011;30507;53.160;8.210;2023-09-18T13:27:24;1.00;;;0.90;;
44784;SDS011;30507;53.160;8.210;2023-09-18T13:29:49;1.23;;;1.03;;
44784;SDS011;30507;53.160;8.210;2023-09-18T13:32:14;1.33;;;0.98;;
44784;SDS011;30507;53.160;8.210;2023-09-18T13:34:39;2.55;;;1.45;;
44784;SDS011;30507;53.160;8.210;2023-09-18T13:37:04;4.50;;;0.93;;
44784;SDS011;30507;53.160;8.210;2023-09-18T13:39:30;1.57;;;1.00;;
44784;SDS011;30507;53.160;8.210;2023-09-18T13:41:55;1.15;;;0.90;;
44784;SDS011;30507;53.160;8.210;2023-09-18T13:44:21;2.08;;;1.00;;
44784;SDS011;30507;53.160;8.210;2023-09-18T13:46:46;2.30;;;1.00;;
44784;SDS011;30507;53.160;8.210;2023-09-18T13:49:11;1.48;;;0.85;;
44784;SDS011;30507;53.160;8.210;2023-09-18T13:51:37;1.70;;;0.80;;
44784;SDS011;30507;53.160;8.210;2023-09-18T13:54:02;0.60;;;0.60;;
44784;SDS011;30507;53.160;8.210;2023-09-18T13:56:28;2.15;;;0.90;;
44784;SDS011;30507;53.160;8.210;2023-09-18T13:58:54;1.50;;;0.80;;
44784;SDS011;30507;53.160;8.210;2023-09-18T14:01:20;1.65;;;1.05;;
44784;SDS011;30507;53.160;8.210;2023-09-18T14:03:46;0.65;;;0.50;;
44784;SDS011;30507;53.160;8.210;2023-09-18T14:06:11;2.55;;;0.90;;
44784;SDS011;30507;53.160;8.210;2023-09-18T14:08:36;1.60;;;0.63;;
44784;SDS011;30507;53.160;8.210;2023-09-18T14:11:04;0.85;;;0.60;;
44784;SDS011;30507;53.160;8.210;2023-09-18T14:13:31;4.68;;;1.35;;
44784;SDS011;30507;53.160;8.210;2023-09-18T14:15:56;1.53;;;0.70;;
44784;SDS011;30507;53.160;8.210;2023-09-18T14:18:21;2.38;;;0.50;;
44784;SDS011;30507;53.160;8.210;2023-09-18T14:20:46;1.52;;;0.70;;
44784;SDS011;30507;53.160;8.210;2023-09-18T14:23:12;0.70;;;0.70;;
44784;SDS011;30507;53.160;8.210;2023-09-18T14:25:37;1.57;;;0.60;;
44784;SDS011;30507;53.160;8.210;2023-09-18T14:28:02;1.60;;;0.83;;
44784;SDS011;30507;53.160;8.210;2023-09-18T14:30:27;1.50;;;0.77;;
44784;SDS011;30507;53.160;8.210;2023-09-18T14:32:56;0.68;;;0.68;;
44784;SDS011;30507;53.160;8.210;2023-09-18T14:35:22;1.70;;;0.70;;
44784;SDS011;30507;53.160;8.210;2023-09-18T14:37:51;0.85;;;0.45;;
44784;SDS011;30507;53.160;8.210;2023-09-18T14:40:16;0.70;;;0.60;;
44784;SDS011;30507;53.160;8.210;2023-09-18T14:42:42;0.38;;;0.30;;
44784;SDS011;30507;53.160;8.210;2023-09-18T14:45:07;1.10;;;0.65;;
44784;SDS011;30507;53.160;8.210;2023-09-18T14:47:33;0.80;;;0.52;;
44784;SDS011;30507;53.160;8.210;2023-09-18T14:49:59;1.60;;;0.73;;
44784;SDS011;30507;53.160;8.210;2023-09-18T14:52:26;1.03;;;0.97;;
44784;SDS011;30507;53.160;8.210;2023-09-18T14:54:51;0.60;;;0.60;;
44784;SDS011;30507;53.160;8.210;2023-09-18T14:57:20;0.63;;;0.60;;
44784;SDS011;30507;53.160;8.210;2023-09-18T14:59:45;0.93;;;0.50;;